Time;durP1;ratioP1;P1;durP2;ratioP2;P2;SDS_P1;SDS_P2;PMS_P1;PMS_P2;Temp;Humidity;BMP_temperature;BMP_pressure;BME280_temperature;BME280_humidity;BME280_pressure;Samples;Min_cycle;Max_cycle;Signal;HPM_P1;HPM_P2
2022/01/21 00:01:16;;;;;;;18.48;8.60;;;;;;;1.85;100.00;102657.53;4918979;29;20023;-73
2022/01/21 00:03:42;;;;;;;28.45;7.30;;;;;;;1.81;100.00;102655.31;4955821;28;20503;-74
2022/01/21 00:06:07;;;;;;;24.17;7.45;;;;;;;1.81;100.00;102664.41;4909659;29;20035;-74
2022/01/21 00:08:34;;;;;;;26.38;7.47;;;;;;;1.78;100.00;102670.25;4925533;28;20114;-74
2022/01/21 00:10:59;;;;;;;20.38;7.63;;;;;;;1.74;100.00;102663.44;4943356;29;20035;-74
2022/01/21 00:13:33;;;;;;;19.52;7.30;;;;;;;1.68;100.00;102667.75;4924901;29;20455;-74
2022/01/21 00:16:03;;;;;;;22.05;8.25;;;;;;;1.64;100.00;102682.00;4925626;29;20034;-74
2022/01/21 00:18:29;;;;;;;19.17;7.35;;;;;;;1.61;100.00;102674.16;4954795;28;20031;-74
2022/01/21 00:31:50;;;;;;;26.38;8.70;;;;;;;1.55;100.00;102668.34;4936080;28;20488;-74
2022/01/21 00:34:16;;;;;;;23.40;9.88;;;;;;;1.52;100.00;102674.19;4946228;29;20050;-74
2022/01/21 00:36:41;;;;;;;21.63;8.27;;;;;;;1.55;100.00;102659.28;4945443;29;20023;-74
2022/01/21 00:39:07;;;;;;;24.67;8.30;;;;;;;1.52;100.00;102662.41;4910838;28;20039;-74
2022/01/21 00:41:38;;;;;;;22.65;8.02;;;;;;;1.51;100.00;102658.81;4927377;29;20032;-74
2022/01/21 00:44:04;;;;;;;20.90;8.00;;;;;;;1.50;100.00;102664.44;4944121;28;20038;-74
2022/01/21 00:46:29;;;;;;;20.45;8.73;;;;;;;1.52;100.00;102663.25;4928614;29;20035;-74
2022/01/21 00:48:55;;;;;;;18.20;7.60;;;;;;;1.52;100.00;102656.91;4943190;29;20043;-74
2022/01/21 00:51:20;;;;;;;18.73;7.15;;;;;;;1.49;100.00;102652.66;4960638;28;20039;-74
2022/01/21 00:53:46;;;;;;;17.65;7.32;;;;;;;1.51;100.00;102653.34;4952334;28;20115;-74
2022/01/21 00:56:11;;;;;;;16.85;7.53;;;;;;;1.50;100.00;102645.28;4948551;28;20038;-74
2022/01/21 00:58:37;;;;;;;15.90;6.78;;;;;;;1.49;100.00;102640.84;4936106;28;20097;-74
2022/01/21 01:01:02;;;;;;;12.38;6.20;;;;;;;1.47;100.00;102649.22;4941228;29;20400;-74
2022/01/21 01:03:28;;;;;;;18.45;6.63;;;;;;;1.46;100.00;102642.06;4945282;28;20580;-74
2022/01/21 01:05:53;;;;;;;18.33;7.75;;;;;;;1.45;100.00;102645.84;4956261;28;20031;-74
2022/01/21 01:08:19;;;;;;;20.02;7.97;;;;;;;1.42;100.00;102651.69;4942624;29;20031;-74
2022/01/21 01:21:28;;;;;;;26.63;10.02;;;;;;;1.39;100.00;102645.69;4957083;28;20042;-74
2022/01/21 01:29:19;;;;;;;22.92;9.27;;;;;;;1.34;100.00;102651.75;4930182;29;20046;-75
2022/01/21 01:31:44;;;;;;;30.45;10.45;;;;;;;1.33;100.00;102650.00;4955797;29;20035;-74
2022/01/21 01:34:11;;;;;;;42.50;15.48;;;;;;;1.31;100.00;102642.00;4932495;29;20496;-74
2022/01/21 01:36:36;;;;;;;26.38;10.15;;;;;;;1.30;100.00;102653.13;4929132;29;20034;-75
2022/01/21 01:39:28;;;;;;;31.15;11.98;;;;;;;1.26;100.00;102646.31;4927414;28;20039;-74
2022/01/21 01:43:00;;;;;;;32.10;11.38;;;;;;;1.27;100.00;102654.31;4924609;29;20059;-75
2022/01/21 01:50:29;;;;;;;26.52;10.82;;;;;;;1.08;100.00;102660.25;4929393;28;21137;-74
2022/01/21 01:52:54;;;;;;;22.50;9.57;;;;;;;1.07;100.00;102664.03;4929033;29;20023;-74
2022/01/21 01:55:20;;;;;;;29.73;10.70;;;;;;;0.98;100.00;102654.16;4911322;29;20028;-73
2022/01/21 01:57:45;;;;;;;29.83;10.82;;;;;;;0.98;100.00;102657.75;4921946;28;20038;-74
2022/01/21 02:00:11;;;;;;;24.48;10.98;;;;;;;0.88;100.00;102655.19;4937147;29;20048;-74
2022/01/21 02:02:36;;;;;;;26.35;10.80;;;;;;;0.88;100.00;102654.34;4918570;29;20455;-74
2022/01/21 02:05:02;;;;;;;23.67;10.15;;;;;;;0.85;100.00;102660.19;4912509;28;20031;-74
2022/01/21 02:07:27;;;;;;;27.00;10.23;;;;;;;0.81;100.00;102656.97;4952434;28;20039;-74
2022/01/21 02:09:53;;;;;;;24.23;9.32;;;;;;;0.84;100.00;102655.75;4942629;28;20039;-74
2022/01/21 02:12:18;;;;;;;23.25;9.77;;;;;;;0.83;100.00;102659.50;4923338;29;20500;-74
2022/01/21 02:14:50;;;;;;;26.23;9.73;;;;;;;0.82;100.00;102666.88;4942283;29;20035;-74
2022/01/21 02:21:28;;;;;;;25.55;9.20;;;;;;;0.83;100.00;102671.28;4950474;28;20063;-74
2022/01/21 02:22:48;;;;;;;19.08;8.27;;;;;;;0.81;100.00;102662.44;4958082;28;20043;-74
2022/01/21 02:25:19;;;;;;;16.42;7.55;;;;;;;0.81;100.00;102672.53;4930757;28;20039;-74
2022/01/21 02:27:49;;;;;;;14.05;6.85;;;;;;;0.76;100.00;102664.00;4902238;29;20102;-74
2022/01/21 02:30:18;;;;;;;20.25;7.20;;;;;;;0.75;100.00;102659.53;4940245;29;20540;-74
2022/01/21 02:32:45;;;;;;;16.13;7.18;;;;;;;0.73;100.00;102654.25;4929595;28;20038;-74
2022/01/21 02:35:11;;;;;;;17.10;7.22;;;;;;;0.70;100.00;102653.72;4930249;29;20035;-74
2022/01/21 02:37:39;;;;;;;16.90;7.47;;;;;;;0.63;100.00;102651.72;4924172;28;20034;-74
2022/01/21 02:40:06;;;;;;;17.48;7.22;;;;;;;0.63;100.00;102654.44;4945706;28;20079;-74
2022/01/21 02:42:31;;;;;;;18.65;6.72;;;;;;;0.62;100.00;102658.22;4936015;29;20050;-74
2022/01/21 02:44:57;;;;;;;15.32;6.30;;;;;;;0.52;100.00;102663.03;4933951;29;20035;-74
2022/01/21 02:47:22;;;;;;;14.82;6.30;;;;;;;0.48;100.00;102661.69;4931317;28;20086;-74
2022/01/21 02:49:48;;;;;;;18.83;6.50;;;;;;;0.51;100.00;102661.31;4940844;29;20040;-74
2022/01/21 02:52:17;;;;;;;14.73;6.43;;;;;;;0.52;100.00;102659.44;4912740;29;20031;-74
2022/01/21 02:54:43;;;;;;;16.42;5.95;;;;;;;0.42;100.00;102665.13;4917348;28;20107;-74
2022/01/21 02:57:09;;;;;;;15.93;6.05;;;;;;;0.41;100.00;102657.91;4958328;28;20038;-74
2022/01/21 02:59:35;;;;;;;11.00;6.07;;;;;;;0.37;100.00;102662.03;4941000;28;20078;-74
2022/01/21 03:02:01;;;;;;;11.10;5.65;;;;;;;0.32;100.00;102657.09;4938368;29;20027;-74
2022/01/21 03:06:54;;;;;;;14.25;6.18;;;;;;;0.27;100.00;102654.03;4955305;28;20034;-74
2022/01/21 03:09:20;;;;;;;15.10;6.50;;;;;;;0.20;100.00;102651.13;4956796;28;20496;-75
2022/01/21 03:11:45;;;;;;;12.85;5.32;;;;;;;0.25;100.00;102655.22;4909273;29;20038;-74
2022/01/21 03:14:11;;;;;;;14.45;5.95;;;;;;;0.16;100.00;102649.75;4909946;29;20503;-75
2022/01/21 03:16:36;;;;;;;17.42;5.82;;;;;;;0.17;100.00;102647.91;4944906;29;20089;-75
2022/01/21 03:19:02;;;;;;;13.98;5.90;;;;;;;0.17;100.00;102656.94;4927760;28;20043;-74
2022/01/21 03:21:28;;;;;;;11.32;5.20;;;;;;;0.11;100.00;102648.56;4939803;29;20042;-74
2022/01/21 03:23:54;;;;;;;14.20;5.47;;;;;;;0.08;100.00;102648.91;4971225;28;20035;-75
2022/01/21 03:26:21;;;;;;;11.50;5.40;;;;;;;0.05;100.00;102644.66;4947231;29;20035;-73
2022/01/21 03:28:48;;;;;;;10.73;4.97;;;;;;;0.03;100.00;102654.03;4943990;29;20472;-74
2022/01/21 03:31:13;;;;;;;11.40;4.57;;;;;;;0.00;100.00;102652.53;4954713;28;20037;-74
2022/01/21 03:33:39;;;;;;;11.13;4.80;;;;;;;-0.03;100.00;102656.47;4956142;28;20432;-74
2022/01/21 03:36:05;;;;;;;12.50;5.30;;;;;;;-0.07;100.00;102654.22;4940846;29;20024;-74
2022/01/21 03:38:30;;;;;;;13.98;4.95;;;;;;;-0.09;100.00;102657.13;4894696;28;20030;-74
2022/01/21 03:40:56;;;;;;;11.88;5.47;;;;;;;-0.13;100.00;102658.50;4969497;28;20071;-74
2022/01/21 03:43:22;;;;;;;13.32;5.00;;;;;;;-0.15;100.00;102671.47;4961242;28;20031;-74
2022/01/21 03:45:47;;;;;;;7.95;4.70;;;;;;;-0.18;100.00;102657.31;4940674;29;20035;-74
2022/01/21 03:48:13;;;;;;;11.80;5.20;;;;;;;-0.21;100.00;102660.38;4894066;29;20086;-73
2022/01/21 03:50:39;;;;;;;11.57;5.03;;;;;;;-0.22;100.00;102659.53;4979182;28;20488;-74
2022/01/21 03:53:04;;;;;;;10.52;4.90;;;;;;;-0.26;100.00;102661.72;4932557;28;20038;-74
2022/01/21 03:55:30;;;;;;;12.18;5.13;;;;;;;-0.28;100.00;102663.81;4940396;29;20027;-74
2022/01/21 03:57:56;;;;;;;12.90;5.38;;;;;;;-0.30;100.00;102654.91;4910426;28;20078;-74
2022/01/21 04:00:28;;;;;;;10.60;5.35;;;;;;;-0.32;100.00;102656.09;4948444;29;20039;-73
2022/01/21 04:02:53;;;;;;;11.30;4.47;;;;;;;-0.37;100.00;102655.75;4974148;28;20035;-74
2022/01/21 04:05:19;;;;;;;13.02;5.10;;;;;;;-0.39;100.00;102655.94;4962512;28;20031;-74
2022/01/21 04:07:45;;;;;;;12.38;4.53;;;;;;;-0.41;100.00;102663.44;4975155;28;20023;-74
2022/01/21 04:10:10;;;;;;;9.23;4.30;;;;;;;-0.42;100.00;102656.25;4963852;28;20031;-73
2022/01/21 04:12:39;;;;;;;12.32;4.65;;;;;;;-0.42;100.00;102656.25;4962524;29;20089;-74
2022/01/21 04:15:05;;;;;;;10.02;4.55;;;;;;;-0.44;100.00;102657.47;4961094;28;20039;-74
2022/01/21 04:17:31;;;;;;;13.35;4.80;;;;;;;-0.49;100.00;102669.72;4947888;28;20038;-74
2022/01/21 04:19:56;;;;;;;14.27;4.90;;;;;;;-0.55;100.00;102664.09;4952562;28;20043;-73
2022/01/21 04:22:22;;;;;;;10.00;4.32;;;;;;;-0.55;100.00;102666.84;4919221;29;20027;-73
2022/01/21 04:24:49;;;;;;;10.73;4.40;;;;;;;-0.59;100.00;102662.72;4946794;29;20031;-74
2022/01/21 04:27:15;;;;;;;11.00;4.65;;;;;;;-0.61;100.00;102660.16;4930257;29;20086;-74
2022/01/21 04:29:40;;;;;;;12.45;4.50;;;;;;;-0.60;100.00;102661.03;4916062;29;20043;-74
2022/01/21 04:32:06;;;;;;;7.63;4.18;;;;;;;-0.65;100.00;102655.19;4914682;29;20110;-74
2022/01/21 04:34:32;;;;;;;11.15;5.03;;;;;;;-0.66;100.00;102658.97;4909363;29;20056;-74
2022/01/21 04:36:59;;;;;;;11.80;4.70;;;;;;;-0.67;100.00;102658.09;4939711;29;20039;-74
2022/01/21 04:39:30;;;;;;;9.10;4.32;;;;;;;-0.72;100.00;102657.75;4904969;28;20050;-74
2022/01/21 04:47:23;;;;;;;11.48;4.50;;;;;;;-0.79;100.00;102671.19;4934531;28;20139;-73
2022/01/21 04:49:49;;;;;;;9.68;4.30;;;;;;;-0.83;100.00;102680.75;4924154;29;20065;-74
2022/01/21 04:52:15;;;;;;;9.32;4.35;;;;;;;-0.85;100.00;102677.31;4896732;29;20031;-74
2022/01/21 04:54:40;;;;;;;8.25;3.90;;;;;;;-0.82;100.00;102673.41;4945944;29;20038;-74
2022/01/21 04:57:06;;;;;;;10.07;4.13;;;;;;;-0.85;100.00;102681.94;4946980;29;20035;-74
2022/01/21 04:59:31;;;;;;;9.88;4.47;;;;;;;-0.90;100.00;102677.81;4916508;29;20082;-74
2022/01/21 05:01:57;;;;;;;9.95;4.40;;;;;;;-0.90;100.00;102679.69;4916934;28;20050;-74
2022/01/21 05:04:22;;;;;;;9.63;3.90;;;;;;;-0.92;100.00;102673.53;4918280;29;20078;-74
2022/01/21 05:06:49;;;;;;;9.80;4.43;;;;;;;-0.92;100.00;102679.00;4970989;28;20032;-74
2022/01/21 05:09:16;;;;;;;9.18;4.50;;;;;;;-0.93;100.00;102680.03;4916122;29;20039;-74
2022/01/21 05:11:45;;;;;;;11.27;4.28;;;;;;;-0.95;100.00;102682.06;4920192;28;20031;-74
2022/01/21 05:14:17;;;;;;;10.70;4.65;;;;;;;-0.96;100.00;102694.00;4895812;29;20037;-74
2022/01/21 05:16:48;;;;;;;7.93;3.97;;;;;;;-0.98;100.00;102687.84;4929283;29;20118;-74
2022/01/21 05:19:17;;;;;;;6.78;4.47;;;;;;;-0.96;100.00;102686.66;4923438;29;20520;-74
2022/01/21 05:21:43;;;;;;;10.73;4.47;;;;;;;-1.01;100.00;102688.16;4934570;29;20035;-74
2022/01/21 05:24:09;;;;;;;9.18;4.18;;;;;;;-1.01;100.00;102683.56;4926070;29;20488;-74
2022/01/21 05:26:39;;;;;;;8.63;4.28;;;;;;;-1.05;100.00;102687.66;4943987;29;20058;-74
2022/01/21 05:29:05;;;;;;;12.38;4.72;;;;;;;-1.07;100.00;102686.09;4912859;28;20121;-74
2022/01/21 05:31:31;;;;;;;12.32;4.63;;;;;;;-1.09;100.00;102683.53;4971907;28;20031;-74
2022/01/21 05:33:56;;;;;;;11.23;4.40;;;;;;;-1.08;100.00;102684.41;4953030;28;20037;-74
2022/01/21 05:36:22;;;;;;;9.80;3.90;;;;;;;-1.08;100.00;102684.41;4913378;29;20035;-74
2022/01/21 05:38:47;;;;;;;11.00;3.97;;;;;;;-1.15;100.00;102693.22;4912321;29;20027;-74
2022/01/21 05:41:14;;;;;;;10.75;3.97;;;;;;;-1.16;100.00;102691.53;4929135;28;20052;-74
2022/01/21 05:43:45;;;;;;;6.85;3.70;;;;;;;-1.19;100.00;102691.84;4942747;29;20047;-74
2022/01/21 05:46:29;;;;;;;8.88;4.00;;;;;;;-1.19;100.00;102694.56;4945850;29;20035;-74
2022/01/21 05:48:54;;;;;;;11.45;4.32;;;;;;;-1.17;100.00;102703.47;4916645;28;20034;-74
2022/01/21 05:51:20;;;;;;;9.93;3.80;;;;;;;-1.21;100.00;102696.59;4931136;29;20087;-73
2022/01/21 05:53:46;;;;;;;11.02;4.07;;;;;;;-1.21;100.00;102690.28;4919325;29;20042;-74
2022/01/21 05:56:12;;;;;;;9.35;3.70;;;;;;;-1.21;100.00;102704.78;4897536;29;20427;-73
2022/01/21 05:58:38;;;;;;;10.25;3.58;;;;;;;-1.21;100.00;102699.31;4913354;29;20407;-74
2022/01/21 06:01:03;;;;;;;10.05;4.18;;;;;;;-1.25;100.00;102703.41;4912517;29;20035;-74
2022/01/21 06:03:31;;;;;;;6.60;3.72;;;;;;;-1.24;100.00;102713.28;4910842;29;20035;-74
2022/01/21 06:05:56;;;;;;;10.60;4.03;;;;;;;-1.24;100.00;102713.28;4940812;29;20035;-74
2022/01/21 06:08:22;;;;;;;9.38;3.95;;;;;;;-1.25;100.00;102710.75;4911518;28;20125;-73
2022/01/21 06:10:47;;;;;;;13.13;3.90;;;;;;;-1.24;100.00;102712.44;4956323;28;20059;-74
2022/01/21 06:13:16;;;;;;;10.65;4.07;;;;;;;-1.29;100.00;102712.91;4935060;29;20031;-73
2022/01/21 06:15:41;;;;;;;10.98;4.43;;;;;;;-1.25;100.00;102713.47;4920159;29;20032;-73
2022/01/21 06:18:07;;;;;;;7.15;3.60;;;;;;;-1.28;100.00;102717.38;4910427;28;20118;-73
2022/01/21 06:20:32;;;;;;;8.35;3.80;;;;;;;-1.32;100.00;102713.25;4923191;29;20027;-74
2022/01/21 06:22:58;;;;;;;10.23;3.88;;;;;;;-1.32;100.00;102715.13;4917036;29;20035;-74
2022/01/21 06:25:23;;;;;;;7.22;3.50;;;;;;;-1.31;100.00;102717.69;4898984;29;20126;-74
2022/01/21 06:27:49;;;;;;;9.32;3.88;;;;;;;-1.31;100.00;102720.44;4910997;29;20031;-73
2022/01/21 06:30:15;;;;;;;9.20;3.88;;;;;;;-1.32;100.00;102729.59;4926885;28;20428;-74
2022/01/21 06:32:41;;;;;;;10.43;4.00;;;;;;;-1.33;100.00;102725.19;4944117;29;20032;-73
2022/01/21 06:35:07;;;;;;;9.20;3.28;;;;;;;-1.34;100.00;102731.63;4939810;29;20038;-73
2022/01/21 06:37:33;;;;;;;12.30;3.92;;;;;;;-1.38;100.00;102732.97;4911110;29;20075;-73
2022/01/21 06:39:59;;;;;;;13.02;3.95;;;;;;;-1.38;100.00;102735.69;4941396;29;20048;-73
2022/01/21 06:42:26;;;;;;;8.48;3.70;;;;;;;-1.40;100.00;102735.84;4944351;29;20054;-73
2022/01/21 06:44:52;;;;;;;8.82;3.92;;;;;;;-1.39;100.00;102732.13;4913205;29;20031;-74
2022/01/21 06:47:18;;;;;;;8.95;3.60;;;;;;;-1.40;100.00;102737.72;4951940;28;20038;-73
2022/01/21 06:49:45;;;;;;;10.27;4.20;;;;;;;-1.40;100.00;102744.03;4961577;28;20068;-74
2022/01/21 06:52:10;;;;;;;9.07;3.85;;;;;;;-1.43;100.00;102738.03;4925653;29;20492;-73
2022/01/21 06:54:36;;;;;;;9.60;3.53;;;;;;;-1.45;100.00;102745.53;4912297;29;20050;-74
2022/01/21 06:57:01;;;;;;;9.55;4.80;;;;;;;-1.44;100.00;102752.72;4942488;29;20500;-73
2022/01/21 06:59:27;;;;;;;7.10;3.67;;;;;;;-1.49;100.00;102750.44;4924650;29;20048;-74
2022/01/21 07:01:52;;;;;;;12.15;4.20;;;;;;;-1.50;100.00;102750.63;4925783;29;20086;-74
2022/01/21 07:04:18;;;;;;;9.50;4.03;;;;;;;-1.50;100.00;102758.81;4940808;28;20046;-74
2022/01/21 07:06:43;;;;;;;12.82;4.20;;;;;;;-1.49;100.00;102755.03;4942185;28;20034;-73
2022/01/21 07:09:09;;;;;;;9.40;4.10;;;;;;;-1.50;100.00;102764.25;4970307;28;20061;-74
2022/01/21 07:11:34;;;;;;;8.68;3.65;;;;;;;-1.54;100.00;102757.38;4958241;28;20062;-73
2022/01/21 07:14:00;;;;;;;13.95;4.50;;;;;;;-1.55;100.00;102766.59;4926778;29;20110;-73
2022/01/21 07:16:25;;;;;;;9.82;4.60;;;;;;;-1.54;100.00;102765.56;4929478;29;20031;-72
2022/01/21 07:18:51;;;;;;;12.88;4.85;;;;;;;-1.41;100.00;102768.72;4942451;28;20031;-73
2022/01/21 07:21:16;;;;;;;8.10;4.15;;;;;;;-1.40;100.00;102776.75;4957778;28;20093;-73
2022/01/21 07:23:42;;;;;;;9.27;3.92;;;;;;;-1.37;100.00;102764.66;4930605;29;20027;-73
2022/01/21 07:26:07;;;;;;;11.50;4.47;;;;;;;-1.32;100.00;102770.50;4968631;28;20044;-71
2022/01/21 07:28:33;;;;;;;8.15;4.20;;;;;;;-1.36;100.00;102771.84;4955718;29;20027;-72
2022/01/21 07:30:59;;;;;;;12.70;4.63;;;;;;;-1.41;100.00;102775.03;4940652;29;20067;-71
2022/01/21 07:33:24;;;;;;;12.27;4.93;;;;;;;-1.44;100.00;102769.91;4907991;29;20032;-71
2022/01/21 07:35:50;;;;;;;14.27;4.90;;;;;;;-1.45;100.00;102770.94;4908500;29;20027;-71
2022/01/21 07:38:15;;;;;;;14.77;5.85;;;;;;;-1.47;100.00;102770.22;4971102;28;20035;-71
2022/01/21 07:40:41;;;;;;;12.90;4.60;;;;;;;-1.43;100.00;102782.50;4929851;29;20420;-71
2022/01/21 07:43:06;;;;;;;11.13;4.55;;;;;;;-1.50;100.00;102775.16;4920388;29;20480;-71
2022/01/21 07:45:32;;;;;;;10.10;4.43;;;;;;;-1.49;100.00;102787.75;4926029;28;20038;-71
2022/01/21 07:47:58;;;;;;;13.48;4.47;;;;;;;-1.50;100.00;102791.50;4909898;29;20027;-71
2022/01/21 07:50:23;;;;;;;11.38;3.97;;;;;;;-1.53;100.00;102792.69;4927619;29;20042;-71
2022/01/21 07:52:49;;;;;;;11.40;4.38;;;;;;;-1.56;100.00;102790.28;4926966;29;20035;-71
2022/01/21 07:55:14;;;;;;;10.10;4.15;;;;;;;-1.59;100.00;102799.63;4939853;29;20035;-71
2022/01/21 07:57:40;;;;;;;10.45;4.35;;;;;;;-1.58;100.00;102798.59;4925156;29;20058;-71
2022/01/21 08:00:06;;;;;;;10.10;4.07;;;;;;;-1.54;100.00;102798.28;4910462;28;20066;-71
2022/01/21 08:02:32;;;;;;;11.57;4.53;;;;;;;-1.56;100.00;102801.16;4912319;29;20031;-70
2022/01/21 08:05:01;;;;;;;13.70;4.72;;;;;;;-1.54;100.00;102801.84;4938733;29;20046;-77
2022/01/21 08:07:26;;;;;;;9.70;4.75;;;;;;;-1.52;100.00;102804.44;4942674;28;20023;-71
2022/01/21 08:09:53;;;;;;;11.93;4.75;;;;;;;-1.57;100.00;102800.28;4935506;29;20039;-71
2022/01/21 08:12:19;;;;;;;8.93;4.82;;;;;;;-1.57;100.00;102800.28;4895265;28;20031;-71
2022/01/21 08:14:44;;;;;;;14.27;5.00;;;;;;;-1.54;100.00;102804.56;4918437;29;20031;-71
2022/01/21 08:17:10;;;;;;;13.57;6.15;;;;;;;-1.53;100.00;102808.16;4931072;29;20637;-71
2022/01/21 08:19:35;;;;;;;13.25;5.78;;;;;;;-1.50;100.00;102807.84;4925782;28;20039;-72
2022/01/21 08:22:01;;;;;;;10.52;4.88;;;;;;;-1.44;100.00;102815.41;4952535;28;20032;-71
2022/01/21 08:24:27;;;;;;;11.13;5.15;;;;;;;-1.37;100.00;102819.19;4939291;28;20035;-71
2022/01/21 08:26:52;;;;;;;14.07;5.80;;;;;;;-1.38;100.00;102806.56;4909053;29;20053;-71
2022/01/21 08:29:18;;;;;;;11.77;5.45;;;;;;;-1.33;100.00;102803.38;4924948;29;20039;-71
2022/01/21 08:31:44;;;;;;;18.60;7.32;;;;;;;-1.31;100.00;102813.13;4925253;29;20050;-71
2022/01/21 08:34:11;;;;;;;16.73;6.93;;;;;;;-1.26;100.00;102818.06;4930071;29;20099;-71
2022/01/21 08:36:38;;;;;;;16.10;6.88;;;;;;;-1.20;100.00;102818.31;4948486;28;20027;-71
2022/01/21 08:39:04;;;;;;;16.83;7.60;;;;;;;-1.13;100.00;102822.09;4931655;28;20034;-72
2022/01/21 08:41:30;;;;;;;20.60;6.75;;;;;;;-1.05;100.00;102828.63;4947024;28;20039;-71
2022/01/21 08:43:55;;;;;;;15.13;6.68;;;;;;;-0.99;100.00;102831.56;4949468;28;20051;-71
2022/01/21 08:46:22;;;;;;;20.77;7.32;;;;;;;-0.88;100.00;102835.88;4912885;28;20552;-71
2022/01/21 08:48:47;;;;;;;20.23;7.55;;;;;;;-0.77;100.00;102832.88;4917352;29;20035;-71
2022/01/21 08:51:19;;;;;;;18.10;6.78;;;;;;;-0.68;100.00;102839.22;4948768;28;20042;-71
2022/01/21 08:53:46;;;;;;;15.68;6.80;;;;;;;-0.55;100.00;102838.78;4930480;28;20106;-71
2022/01/21 08:56:12;;;;;;;20.25;7.03;;;;;;;-0.43;100.00;102840.19;4912748;29;20042;-71
2022/01/21 08:58:38;;;;;;;15.60;7.15;;;;;;;-0.33;100.00;102846.41;4912377;28;20069;-71
2022/01/21 09:01:04;;;;;;;17.55;8.45;;;;;;;-0.22;100.00;102837.06;4942934;28;20081;-71
2022/01/21 09:03:29;;;;;;;15.63;8.07;;;;;;;-0.12;100.00;102842.34;4909878;29;20433;-72
2022/01/21 09:05:55;;;;;;;24.13;9.40;;;;;;;-0.01;100.00;102833.84;4940262;29;20038;-72
2022/01/21 09:08:25;;;;;;;19.88;8.70;;;;;;;0.10;100.00;102829.94;4910507;29;20027;-72
2022/01/21 09:10:51;;;;;;;19.05;8.88;;;;;;;0.19;100.00;102827.03;4951567;28;20031;-72
2022/01/21 09:13:17;;;;;;;20.45;9.80;;;;;;;0.31;100.00;102827.59;4913818;28;20107;-71
2022/01/21 09:15:42;;;;;;;17.70;9.15;;;;;;;0.41;100.00;102825.53;4940485;29;20039;-71
2022/01/21 09:18:09;;;;;;;18.40;8.73;;;;;;;0.53;100.00;102831.53;4942665;29;20040;-71
2022/01/21 09:20:35;;;;;;;22.98;9.50;;;;;;;0.64;100.00;102828.47;4906565;28;20126;-71
2022/01/21 09:23:01;;;;;;;17.95;7.93;;;;;;;0.71;100.00;102830.50;4913295;29;20046;-72
2022/01/21 09:25:27;;;;;;;25.55;7.97;;;;;;;0.77;100.00;102843.50;4904342;28;20769;-71
2022/01/21 09:27:52;;;;;;;19.05;8.05;;;;;;;0.88;100.00;102835.78;4915751;29;20030;-71
2022/01/21 09:30:18;;;;;;;19.13;6.95;;;;;;;1.01;100.00;102840.72;4926446;29;20665;-72
2022/01/21 09:32:43;;;;;;;15.85;7.28;;;;;;;1.12;100.00;102842.25;4918941;28;20027;-71
2022/01/21 09:35:10;;;;;;;20.88;7.13;;;;;;;1.24;100.00;102846.31;4958662;29;20031;-71
2022/01/21 09:37:36;;;;;;;16.17;6.40;;;;;;;1.35;100.00;102847.81;4930145;29;20106;-71
2022/01/21 09:40:02;;;;;;;12.93;5.78;;;;;;;1.47;100.00;102849.16;4963556;28;20055;-71
2022/01/21 09:42:30;;;;;;;16.35;6.68;;;;;;;1.61;100.00;102854.91;4958129;28;20552;-71
2022/01/21 09:44:55;;;;;;;17.30;6.55;;;;;;;1.72;100.00;102860.00;4961532;28;20071;-71
2022/01/21 09:47:21;;;;;;;14.15;5.90;;;;;;;1.86;100.00;102861.16;4911153;29;20039;-71
2022/01/21 09:49:46;;;;;;;11.55;5.40;;;;;;;1.99;100.00;102858.69;4952848;28;20039;-71
2022/01/21 09:52:13;;;;;;;21.52;6.32;;;;;;;2.13;100.00;102862.56;4924956;29;20035;-72
2022/01/21 09:54:45;;;;;;;16.20;6.13;;;;;;;2.29;100.00;102862.44;4923191;29;20582;-73
2022/01/21 09:57:11;;;;;;;20.43;6.13;;;;;;;2.42;100.00;102862.72;4909364;29;20034;-72
2022/01/21 09:59:37;;;;;;;16.20;6.50;;;;;;;2.54;100.00;102867.78;4933542;28;20277;-72
2022/01/21 10:02:07;;;;;;;18.33;6.53;;;;;;;2.67;100.00;102865.25;4925679;29;20056;-71
2022/01/21 10:04:35;;;;;;;18.23;6.80;;;;;;;2.80;100.00;102860.00;4955928;28;20415;-72
2022/01/21 10:07:00;;;;;;;22.23;8.88;;;;;;;2.94;100.00;102866.56;4895042;28;20071;-72
2022/01/21 10:09:26;;;;;;;19.60;8.98;;;;;;;3.03;100.00;102861.84;4915242;28;20039;-74
2022/01/21 10:11:53;;;;;;;24.55;9.82;;;;;;;3.14;100.00;102862.22;4930372;29;20035;-74
2022/01/21 10:14:24;;;;;;;27.88;9.27;;;;;;;3.27;100.00;102864.34;4941194;28;20040;-74
2022/01/21 10:16:50;;;;;;;23.92;8.23;;;;;;;3.33;100.00;102871.81;4939115;29;20027;-73
2022/01/21 10:19:27;;;;;;;24.33;9.02;;;;;;;3.44;100.00;102866.91;4903252;29;20094;-73
2022/01/21 10:22:17;;;;;;;22.67;9.18;;;;;;;3.60;100.00;102874.97;4941469;28;20384;-74
2022/01/21 10:25:01;;;;;;;23.98;7.10;;;;;;;3.71;100.00;102874.50;4946011;28;20083;-74
2022/01/21 10:27:36;;;;;;;28.33;8.32;;;;;;;3.88;100.00;102879.78;4934379;29;20027;-75
2022/01/21 10:30:03;;;;;;;24.65;7.40;;;;;;;3.96;100.00;102882.44;4973708;28;20043;-74
2022/01/21 10:32:47;;;;;;;23.25;8.32;;;;;;;4.08;100.00;102885.53;4958438;28;20059;-74
2022/01/21 10:35:26;;;;;;;26.95;7.45;;;;;;;4.17;100.00;102882.47;4942818;29;20027;-74
2022/01/21 10:37:55;;;;;;;19.83;5.07;;;;;;;4.24;100.00;102880.66;4955088;28;20031;-75
2022/01/21 10:40:21;;;;;;;24.35;5.55;;;;;;;4.24;100.00;102886.16;4965594;28;20095;-75
2022/01/21 10:42:47;;;;;;;21.40;5.03;;;;;;;4.22;100.00;102885.47;4950094;28;20038;-74
2022/01/21 10:45:13;;;;;;;17.65;4.80;;;;;;;4.19;100.00;102874.88;4896861;29;20093;-74
2022/01/21 10:47:40;;;;;;;22.48;4.80;;;;;;;4.24;100.00;102886.16;4941758;29;20039;-73
2022/01/21 10:50:09;;;;;;;19.48;4.85;;;;;;;4.28;100.00;102880.25;4954431;28;20059;-74
2022/01/21 10:52:38;;;;;;;19.60;5.15;;;;;;;4.20;100.00;102884.81;4957886;29;20039;-75
2022/01/21 10:55:06;;;;;;;22.13;5.18;;;;;;;4.24;100.00;102888.91;4953911;28;20422;-73
2022/01/21 10:57:32;;;;;;;14.48;4.93;;;;;;;4.29;100.00;102882.81;4935518;29;20114;-73
2022/01/21 11:00:06;;;;;;;25.55;5.38;;;;;;;4.31;100.00;102868.84;4940538;29;20037;-73
2022/01/21 11:02:44;;;;;;;25.50;5.18;;;;;;;4.33;100.00;102875.03;4925851;29;20042;-73
2022/01/21 11:05:14;;;;;;;18.55;5.38;;;;;;;4.37;100.00;102879.09;4932342;28;20033;-74
2022/01/21 11:07:54;;;;;;;37.53;14.32;;;;;;;4.48;100.00;102878.56;4913910;28;20027;-74
2022/01/21 11:10:32;;;;;;;19.98;5.70;;;;;;;4.57;100.00;102874.66;4956873;28;20075;-74
2022/01/21 11:13:21;;;;;;;23.92;5.05;;;;;;;4.57;100.00;102868.28;4968762;28;20396;-74
2022/01/21 11:16:26;;;;;;;18.30;5.00;;;;;;;4.55;100.00;102875.91;4949796;28;20058;-74
2022/01/21 11:18:54;;;;;;;10.35;3.80;;;;;;;4.62;100.00;102866.63;4952673;28;20043;-75
2022/01/21 11:21:19;;;;;;;24.13;4.93;;;;;;;4.69;100.00;102856.56;4969802;28;20029;-74
2022/01/21 11:23:45;;;;;;;19.17;4.05;;;;;;;4.68;100.00;102865.88;4928121;28;20039;-75
2022/01/21 11:26:14;;;;;;;20.48;4.60;;;;;;;4.74;100.00;102855.13;4924676;29;20027;-75
2022/01/21 11:28:46;;;;;;;18.92;4.65;;;;;;;4.79;100.00;102855.34;4925135;28;20436;-75
2022/01/21 11:31:17;;;;;;;17.52;4.28;;;;;;;4.79;100.00;102855.34;4950302;28;20539;-74
2022/01/21 11:33:43;;;;;;;18.00;3.65;;;;;;;4.85;100.00;102855.44;4949890;28;20451;-75
2022/01/21 11:36:08;;;;;;;11.77;3.10;;;;;;;4.80;99.41;102854.31;4945029;29;20043;-75
2022/01/21 11:38:37;;;;;;;11.02;3.35;;;;;;;4.93;99.20;102858.03;4969436;28;20095;-75
2022/01/21 11:41:04;;;;;;;14.73;2.75;;;;;;;4.96;98.21;102848.53;4954585;28;20098;-74
2022/01/21 11:43:30;;;;;;;14.73;2.70;;;;;;;4.98;96.21;102849.16;4926761;28;20412;-74
2022/01/21 11:50:50;;;;;;;15.88;3.45;;;;;;;5.21;92.72;102831.53;4943378;29;20106;-74
2022/01/21 11:53:45;;;;;;;7.90;2.08;;;;;;;5.65;88.55;102833.91;4924710;28;20503;-74
2022/01/21 11:56:32;;;;;;;12.35;2.65;;;;;;;5.75;87.72;102825.28;4945077;28;20035;-74
2022/01/21 11:59:33;;;;;;;15.80;3.10;;;;;;;5.56;88.37;102824.13;4907847;29;20043;-74
2022/01/21 12:01:59;;;;;;;10.50;3.25;;;;;;;5.39;91.45;102818.09;4940146;28;20035;-74
2022/01/21 12:04:30;;;;;;;12.02;3.17;;;;;;;5.41;90.35;102816.00;4921242;29;20034;-74